KSGF

Springfield-Branson National Airport

Springfield, Missouri, USA
METAR KSGF 280052Z 19004KT 10SM CLR 29/19 A2990 RMK AO2 SLP109 T02940189
Observed Flight Rules
May-28 @ 00:52 UTC (22 minutes ago) Visual Flight Rules
Wind Visibility Clouds
190° at 4 knots 10 miles
  • Clear skies
Temperatures Readings
Current 29°C / 84°F
Dewpoint 19°C / 66°F
Humidity 55%
Altimeter 29.9" Hg
Pressure 1010.9 hPa
Elevation 390
METAR KSGF 280052Z 19004KT 10SM CLR 29/19 A2990 RMK AO2 SLP109 T02940189
Observed Flight Rules
May-28 @ 00:52 UTC
(22 minutes ago)
VFR
Wind Visibility
190° at 4 knots 10 miles
Clouds
  • Clear skies
Temperature Dewpoint
29°C / 84°F 19°C / 66°F
Humidity Altimeter Pressure
55% 29.9" Hg 1010.9 hPa